Time;durP1;ratioP1;P1;durP2;ratioP2;P2;SDS_P1;SDS_P2;PMS_P1;PMS_P2;Temp;Humidity;BMP_temperature;BMP_pressure;BME280_temperature;BME280_humidity;BME280_pressure;Samples;Min_cycle;Max_cycle;Signal;HPM_P1;HPM_P2
2021/05/27 00:00:18;;;;;;;1.40;0.90;;;;;;;15.13;70.37;97700.73;1737211;82;21069;-70
2021/05/27 00:02:48;;;;;;;2.65;0.88;;;;;;;15.09;70.37;97704.69;1737091;81;21094;-70
2021/05/27 00:05:15;;;;;;;1.27;1.00;;;;;;;15.04;71.66;97703.91;1737459;82;21573;-67
2021/05/27 00:07:42;;;;;;;1.37;0.90;;;;;;;14.98;72.17;97712.97;1737398;82;21110;-67
2021/05/27 00:10:13;;;;;;;1.75;1.10;;;;;;;14.91;72.32;97710.22;1737273;82;21054;-69
2021/05/27 00:12:40;;;;;;;0.85;0.60;;;;;;;14.83;73.85;97711.59;1737431;82;21077;-71
2021/05/27 00:15:10;;;;;;;1.42;0.80;;;;;;;14.75;74.07;97710.86;1737475;82;21589;-69
2021/05/27 00:17:37;;;;;;;1.87;1.02;;;;;;;14.71;74.38;97716.41;1737653;82;21065;-70
2021/05/27 00:20:06;;;;;;;1.35;1.00;;;;;;;14.72;72.13;97715.43;1737495;82;21059;-72
2021/05/27 00:22:33;;;;;;;2.47;1.40;;;;;;;14.72;73.04;97704.98;1706526;82;21054;-72
2021/05/27 00:25:01;;;;;;;1.47;0.88;;;;;;;14.71;71.89;97701.22;1737627;82;21125;-72
2021/05/27 00:27:28;;;;;;;4.25;0.95;;;;;;;14.71;73.56;97709.88;1737310;82;21550;-71
2021/05/27 00:29:54;;;;;;;2.58;0.93;;;;;;;14.65;73.38;97711.89;1737479;82;21071;-69
2021/05/27 00:32:21;;;;;;;1.35;1.00;;;;;;;14.63;73.89;97707.80;1737391;82;21177;-70
2021/05/27 00:34:48;;;;;;;3.05;0.90;;;;;;;14.62;73.73;97706.20;1737559;82;21109;-70
2021/05/27 00:37:15;;;;;;;1.52;1.17;;;;;;;14.59;73.91;97703.42;1737535;82;21066;-69
2021/05/27 00:39:42;;;;;;;1.95;0.93;;;;;;;14.52;74.69;97705.11;1737478;82;21050;-68
2021/05/27 00:42:10;;;;;;;1.02;0.75;;;;;;;14.46;74.92;97704.52;1726289;82;21689;-68
2021/05/27 00:44:37;;;;;;;3.08;1.12;;;;;;;14.43;75.59;97702.74;1720522;83;21626;-69
2021/05/27 00:47:09;;;;;;;1.30;0.80;;;;;;;14.44;75.43;97705.16;1720681;83;21202;-68
2021/05/27 00:49:36;;;;;;;1.50;0.82;;;;;;;14.45;74.70;97702.06;1720382;83;21083;-69
2021/05/27 00:52:25;;;;;;;1.30;0.80;;;;;;;14.46;75.50;97709.73;1720685;83;21639;-69
2021/05/27 00:54:53;;;;;;;1.07;0.80;;;;;;;14.48;74.30;97705.63;1720633;83;21179;-68
2021/05/27 00:57:33;;;;;;;2.12;0.68;;;;;;;14.51;73.96;97696.95;1700437;83;21697;-68
2021/05/27 01:00:06;;;;;;;1.45;1.00;;;;;;;14.54;73.34;97691.40;1720601;83;21087;-67
2021/05/27 01:02:33;;;;;;;1.45;0.80;;;;;;;14.59;73.39;97683.04;1720626;82;21094;-67
2021/05/27 01:05:00;;;;;;;2.35;0.80;;;;;;;14.61;72.96;97691.02;1720631;83;21061;-67
2021/05/27 01:07:29;;;;;;;1.82;1.00;;;;;;;14.63;72.24;97692.13;1720511;83;21085;-68
2021/05/27 01:09:56;;;;;;;4.25;1.17;;;;;;;14.64;71.77;97685.43;1720501;83;21134;-68
2021/05/27 01:12:22;;;;;;;1.82;0.80;;;;;;;14.64;71.71;97686.73;1689574;85;21201;-69
2021/05/27 01:17:38;;;;;;;1.00;0.62;;;;;;;14.59;74.02;97691.66;1690075;85;21094;-68
2021/05/27 01:20:12;;;;;;;1.45;1.10;;;;;;;14.62;72.33;97697.88;1686475;84;21095;-68
2021/05/27 01:22:40;;;;;;;2.02;1.05;;;;;;;14.63;73.44;97701.27;1720715;83;21047;-68
2021/05/27 01:25:09;;;;;;;4.20;1.05;;;;;;;14.66;73.39;97698.34;1720758;83;21141;-68
2021/05/27 01:27:36;;;;;;;1.32;0.80;;;;;;;14.67;74.47;97696.02;1678845;84;21070;-72
2021/05/27 01:30:08;;;;;;;1.12;0.85;;;;;;;14.63;75.14;97698.17;1720958;83;21150;-68
2021/05/27 01:32:36;;;;;;;1.05;0.80;;;;;;;14.70;74.02;97692.59;1720950;83;21233;-70
2021/05/27 01:35:07;;;;;;;1.60;0.90;;;;;;;14.76;73.96;97694.98;1689652;83;21142;-68
2021/05/27 01:37:37;;;;;;;1.40;1.02;;;;;;;14.78;74.00;97690.90;1721047;82;21086;-68
2021/05/27 01:40:06;;;;;;;1.10;0.70;;;;;;;14.80;73.68;97687.11;1690365;83;21059;-69
2021/05/27 01:42:33;;;;;;;1.22;0.70;;;;;;;14.76;72.96;97668.84;1663857;85;21644;-70
2021/05/27 01:45:00;;;;;;;1.32;1.00;;;;;;;14.89;72.93;97694.40;1721173;82;21191;-68
2021/05/27 01:47:27;;;;;;;2.95;1.05;;;;;;;14.89;72.51;97689.98;1720873;83;21512;-68
2021/05/27 01:49:54;;;;;;;0.90;0.80;;;;;;;14.91;72.30;97684.56;1690511;83;21115;-72
2021/05/27 01:52:20;;;;;;;2.10;0.88;;;;;;;14.92;72.45;97687.02;1686006;85;21641;-71
2021/05/27 01:54:47;;;;;;;1.35;0.90;;;;;;;14.94;72.32;97685.02;1689821;85;21574;-68
2021/05/27 01:57:14;;;;;;;0.55;0.50;;;;;;;14.94;72.23;97685.02;1725258;82;21065;-68
2021/05/27 01:59:42;;;;;;;1.85;1.05;;;;;;;14.97;72.49;97686.48;1725225;83;21576;-68
2021/05/27 02:02:11;;;;;;;1.57;1.00;;;;;;;14.97;72.45;97686.00;1725296;82;21428;-68
2021/05/27 02:04:38;;;;;;;0.90;0.80;;;;;;;14.99;72.63;97685.80;1725365;83;21276;-69
2021/05/27 02:07:15;;;;;;;1.10;0.78;;;;;;;15.01;72.82;97681.22;1725147;83;21159;-67
2021/05/27 02:09:44;;;;;;;0.88;0.80;;;;;;;15.01;72.07;97676.81;1725181;83;21064;-67
2021/05/27 02:12:11;;;;;;;1.10;0.82;;;;;;;15.03;71.62;97680.53;1725341;81;21552;-67
2021/05/27 02:14:38;;;;;;;0.80;0.57;;;;;;;15.02;70.94;97674.98;1725361;83;21599;-67
2021/05/27 02:17:05;;;;;;;1.10;0.68;;;;;;;14.95;72.40;97682.73;1725393;82;21111;-70
2021/05/27 02:19:32;;;;;;;1.42;0.80;;;;;;;14.90;71.01;97677.20;1705189;81;21100;-70
2021/05/27 02:21:59;;;;;;;0.68;0.47;;;;;;;14.80;70.76;97676.66;1725415;83;21044;-68
2021/05/27 02:24:28;;;;;;;1.22;0.70;;;;;;;14.76;70.87;97681.09;1722775;83;21040;-67
2021/05/27 02:26:55;;;;;;;1.67;0.80;;;;;;;14.66;71.51;97687.39;1725479;83;21028;-67
2021/05/27 02:29:23;;;;;;;2.25;1.22;;;;;;;14.58;72.78;97687.94;1725572;81;21086;-67
2021/05/27 02:31:50;;;;;;;1.05;0.62;;;;;;;14.48;72.55;97686.84;1725342;81;21040;-69
2021/05/27 02:34:19;;;;;;;1.35;0.90;;;;;;;14.42;72.54;97681.52;1725303;81;21072;-69
2021/05/27 02:36:47;;;;;;;0.95;0.72;;;;;;;14.38;72.37;97676.31;1725286;83;21037;-67
2021/05/27 02:39:15;;;;;;;1.32;0.90;;;;;;;14.32;72.72;97680.91;1725348;83;21143;-73
2021/05/27 02:41:47;;;;;;;2.20;0.88;;;;;;;14.24;73.92;97684.35;1725051;82;21192;-69
2021/05/27 02:44:16;;;;;;;2.37;0.82;;;;;;;14.18;73.24;97683.75;1725294;82;21575;-70
2021/05/27 02:46:45;;;;;;;1.62;0.90;;;;;;;14.12;74.50;97681.31;1725094;81;21059;-69
2021/05/27 02:49:12;;;;;;;0.82;0.60;;;;;;;14.07;74.26;97681.03;1725313;82;21679;-68
2021/05/27 02:51:41;;;;;;;0.82;0.72;;;;;;;14.02;74.51;97682.52;1725442;81;21473;-67
2021/05/27 02:54:08;;;;;;;4.25;1.10;;;;;;;14.00;74.56;97680.59;1721871;81;21159;-67
2021/05/27 02:56:36;;;;;;;3.27;1.30;;;;;;;13.93;76.40;97677.83;1718270;83;21183;-67
2021/05/27 02:59:04;;;;;;;1.27;0.90;;;;;;;13.92;75.30;97679.32;1718198;83;21083;-69
2021/05/27 03:01:32;;;;;;;0.65;0.57;;;;;;;13.88;75.58;97686.68;1718226;83;21083;-69
2021/05/27 03:04:00;;;;;;;1.75;0.93;;;;;;;13.80;77.51;97691.93;1718060;82;21162;-69
2021/05/27 03:06:27;;;;;;;2.00;1.10;;;;;;;13.75;76.91;97691.62;1718290;83;21043;-69
2021/05/27 03:08:55;;;;;;;1.00;0.90;;;;;;;13.71;77.87;97695.05;1718195;82;21087;-68
2021/05/27 03:11:22;;;;;;;6.62;0.90;;;;;;;13.72;76.20;97695.39;1718292;83;21088;-67
2021/05/27 03:13:51;;;;;;;3.47;0.82;;;;;;;13.71;77.36;97691.14;1717867;82;21091;-72
2021/05/27 03:16:18;;;;;;;4.05;0.90;;;;;;;13.71;75.99;97690.33;1708240;83;21051;-72
2021/05/27 03:18:46;;;;;;;2.55;1.00;;;;;;;13.73;76.45;97694.91;1718185;83;21056;-72
2021/05/27 03:21:13;;;;;;;0.93;0.72;;;;;;;13.74;75.43;97684.27;1718293;83;21028;-71
2021/05/27 03:23:41;;;;;;;0.80;0.50;;;;;;;13.75;73.84;97683.78;1718349;82;21076;-71
2021/05/27 03:26:10;;;;;;;0.80;0.65;;;;;;;13.72;73.53;97686.25;1718237;83;21079;-72
2021/05/27 03:28:37;;;;;;;0.90;0.60;;;;;;;13.70;74.22;97686.90;1718127;83;21123;-71
2021/05/27 03:31:06;;;;;;;1.72;1.00;;;;;;;13.68;73.73;97690.18;1718021;83;21058;-71
2021/05/27 03:33:35;;;;;;;2.67;0.90;;;;;;;13.66;74.48;97696.05;1718186;83;21722;-71
2021/05/27 03:36:04;;;;;;;0.93;0.82;;;;;;;13.63;74.63;97695.56;1718285;83;21039;-71
2021/05/27 03:38:32;;;;;;;1.30;0.80;;;;;;;13.59;74.42;97692.97;1708141;83;21047;-71
2021/05/27 03:41:03;;;;;;;1.45;0.80;;;;;;;13.58;73.71;97688.76;1718094;82;21063;-71
2021/05/27 03:43:31;;;;;;;1.40;0.90;;;;;;;13.55;72.75;97687.77;1718108;83;21067;-71
2021/05/27 03:46:00;;;;;;;2.20;0.82;;;;;;;13.54;71.86;97686.16;1718158;82;21023;-71
2021/05/27 03:48:29;;;;;;;2.10;1.20;;;;;;;13.49;73.51;97688.45;1718178;83;21198;-71
2021/05/27 03:50:56;;;;;;;1.05;0.80;;;;;;;13.47;74.13;97695.61;1718271;82;21067;-71
2021/05/27 03:53:25;;;;;;;3.33;0.80;;;;;;;13.46;73.37;97693.48;1717988;83;21095;-73
2021/05/27 03:55:57;;;;;;;1.60;1.00;;;;;;;13.45;74.93;97693.67;1717520;83;21107;-71
2021/05/27 04:01:10;;;;;;;1.95;0.80;;;;;;;13.41;75.29;97699.72;1711738;83;21539;-71
2021/05/27 04:09:14;;;;;;;0.82;0.57;;;;;;;13.50;74.67;97698.70;1718436;83;21186;-72
2021/05/27 04:11:41;;;;;;;1.07;0.90;;;;;;;13.55;73.08;97698.20;1694308;83;21170;-71
2021/05/27 04:14:08;;;;;;;1.60;0.98;;;;;;;13.59;72.54;97700.31;1674139;86;21028;-71
2021/05/27 04:16:35;;;;;;;1.02;0.70;;;;;;;13.66;72.91;97703.05;1674262;86;21060;-71
2021/05/27 04:19:03;;;;;;;1.57;0.93;;;;;;;13.71;73.52;97702.06;1674133;86;21143;-71
2021/05/27 04:21:30;;;;;;;1.45;0.90;;;;;;;13.76;72.98;97703.20;1674389;84;21130;-71
2021/05/27 04:23:58;;;;;;;2.10;0.80;;;;;;;13.85;73.12;97697.95;1674336;86;21179;-71
2021/05/27 04:26:25;;;;;;;1.55;0.78;;;;;;;13.94;72.48;97694.30;1674326;86;21678;-68
2021/05/27 04:28:52;;;;;;;1.30;0.80;;;;;;;14.04;72.64;97692.31;1674188;86;21630;-70
2021/05/27 04:31:21;;;;;;;1.27;0.85;;;;;;;14.14;72.57;97695.52;1674203;86;21055;-71
2021/05/27 04:33:54;;;;;;;1.07;0.85;;;;;;;14.22;72.82;97684.54;1654990;86;21603;-75
2021/05/27 04:36:22;;;;;;;2.00;1.47;;;;;;;14.33;74.46;97692.47;1674243;85;21064;-74
2021/05/27 04:38:51;;;;;;;1.45;0.80;;;;;;;14.38;74.31;97698.03;1674054;86;21103;-74
2021/05/27 04:41:19;;;;;;;1.35;0.80;;;;;;;14.46;74.77;97691.45;1674228;86;21178;-74
2021/05/27 04:43:47;;;;;;;0.90;0.70;;;;;;;14.57;73.95;97691.05;1674557;86;21051;-73
2021/05/27 04:46:14;;;;;;;1.50;0.75;;;;;;;14.73;72.87;97695.34;1674637;86;21072;-73
2021/05/27 04:48:41;;;;;;;1.25;0.72;;;;;;;14.88;71.86;97688.35;1674513;85;21031;-73
2021/05/27 04:51:08;;;;;;;1.22;0.57;;;;;;;15.04;72.13;97699.98;1674551;86;21131;-72
2021/05/27 04:53:35;;;;;;;1.60;1.07;;;;;;;15.18;72.12;97690.53;1675024;84;21161;-74
2021/05/27 04:56:03;;;;;;;1.20;0.70;;;;;;;15.30;71.83;97690.41;1691554;85;21262;-74
2021/05/27 04:58:31;;;;;;;1.35;0.80;;;;;;;15.34;71.09;97683.83;1691462;85;21538;-74
2021/05/27 05:00:59;;;;;;;1.52;1.07;;;;;;;15.45;71.17;97688.62;1691392;85;21657;-74
2021/05/27 05:03:27;;;;;;;2.25;1.30;;;;;;;15.46;71.41;97683.71;1691373;85;21082;-73
2021/05/27 05:05:55;;;;;;;1.62;1.25;;;;;;;15.51;71.21;97681.90;1691652;83;21106;-74
2021/05/27 05:08:22;;;;;;;2.10;1.17;;;;;;;15.59;71.16;97685.73;1706644;83;21051;-74
2021/05/27 05:10:49;;;;;;;5.85;1.87;;;;;;;15.63;70.69;97685.20;1706586;83;21130;-74
2021/05/27 05:13:16;;;;;;;3.40;1.62;;;;;;;15.72;70.42;97686.42;1721973;83;21134;-73
2021/05/27 05:15:43;;;;;;;2.20;1.02;;;;;;;15.75;70.52;97689.48;1728309;82;21067;-72
2021/05/27 05:18:15;;;;;;;2.87;1.05;;;;;;;15.87;70.35;97689.34;1728207;82;21154;-73
2021/05/27 05:20:49;;;;;;;1.30;1.00;;;;;;;15.97;69.84;97690.35;1728332;83;21744;-73
2021/05/27 05:23:15;;;;;;;1.85;1.10;;;;;;;15.96;69.08;97690.03;1713791;83;21043;-73
2021/05/27 05:25:42;;;;;;;1.40;1.00;;;;;;;16.00;69.00;97694.72;1696566;83;21055;-76
2021/05/27 05:28:13;;;;;;;0.68;0.60;;;;;;;16.06;69.40;97688.77;1691671;85;21170;-73
2021/05/27 05:30:42;;;;;;;2.75;1.12;;;;;;;16.15;69.11;97693.38;1691487;83;21014;-74
2021/05/27 05:33:09;;;;;;;2.02;1.10;;;;;;;16.24;68.73;97697.52;1691475;85;21086;-76
2021/05/27 05:35:37;;;;;;;2.02;0.78;;;;;;;16.33;68.39;97697.73;1691541;85;21141;-74
2021/05/27 05:38:04;;;;;;;1.42;0.93;;;;;;;16.43;68.21;97697.42;1691629;85;21179;-76
2021/05/27 05:40:33;;;;;;;2.67;1.20;;;;;;;16.60;68.29;97694.91;1691491;84;21054;-72
2021/05/27 05:43:00;;;;;;;1.85;1.25;;;;;;;16.74;67.76;97694.03;1691472;85;21146;-72
2021/05/27 05:45:27;;;;;;;65.97;30.17;;;;;;;16.88;67.40;97698.91;1691409;85;21132;-69
2021/05/27 05:47:54;;;;;;;20.30;10.23;;;;;;;17.05;67.15;97713.37;1655301;85;21125;-67
2021/05/27 05:53:10;;;;;;;23.52;10.20;;;;;;;17.23;65.66;97711.61;1691510;85;21169;-65
2021/05/27 05:55:57;;;;;;;4.10;1.92;;;;;;;17.34;65.38;97713.20;1679987;84;21070;-64
2021/05/27 05:58:26;;;;;;;3.37;1.50;;;;;;;17.34;64.95;97714.52;1614434;89;21085;-64
2021/05/27 06:00:54;;;;;;;1.10;1.00;;;;;;;17.46;64.78;97716.11;1600785;90;21161;-65
2021/05/27 06:03:21;;;;;;;1.75;1.15;;;;;;;17.57;64.32;97720.86;1614467;89;21117;-66
2021/05/27 06:06:09;;;;;;;2.50;1.30;;;;;;;17.90;63.25;97721.84;1603118;87;22367;-65
2021/05/27 06:08:40;;;;;;;2.25;1.00;;;;;;;17.90;63.25;97721.84;1619019;87;21862;-64
2021/05/27 06:11:07;;;;;;;1.17;0.90;;;;;;;18.10;63.53;97724.56;1609085;87;21098;-64
2021/05/27 06:13:34;;;;;;;1.47;0.80;;;;;;;18.35;63.10;97713.86;1601742;89;21701;-65
2021/05/27 06:16:01;;;;;;;1.82;0.78;;;;;;;18.56;62.70;97711.60;1614351;89;21597;-65
2021/05/27 06:18:28;;;;;;;2.02;1.07;;;;;;;18.75;61.67;97710.86;1600950;89;21135;-65
2021/05/27 06:20:58;;;;;;;1.65;1.12;;;;;;;18.89;61.43;97712.48;1612096;87;21075;-65
2021/05/27 06:23:26;;;;;;;1.65;0.90;;;;;;;19.03;60.90;97709.34;1619789;87;21233;-64
2021/05/27 06:25:53;;;;;;;1.22;0.75;;;;;;;19.17;60.59;97707.03;1619802;88;21070;-66
2021/05/27 06:28:20;;;;;;;1.00;0.68;;;;;;;19.27;59.33;97704.78;1638550;87;21699;-66
2021/05/27 06:30:46;;;;;;;1.07;0.80;;;;;;;19.42;59.14;97698.01;1640022;87;21974;-66
2021/05/27 06:33:14;;;;;;;1.72;0.95;;;;;;;19.34;57.04;97702.95;1640129;87;21182;-66
2021/05/27 06:35:41;;;;;;;2.52;0.60;;;;;;;19.48;57.47;97695.89;1639193;87;21175;-65
2021/05/27 06:38:09;;;;;;;4.70;0.70;;;;;;;19.63;58.00;97703.05;1633280;87;21252;-68
2021/05/27 06:40:35;;;;;;;0.80;0.68;;;;;;;19.75;56.67;97701.41;1604996;89;21210;-69
2021/05/27 06:43:02;;;;;;;1.30;0.70;;;;;;;19.89;57.71;97706.11;1607405;89;21262;-71
2021/05/27 06:45:29;;;;;;;2.22;1.52;;;;;;;19.90;55.10;97701.16;1605009;89;21136;-71
2021/05/27 06:47:56;;;;;;;1.75;0.90;;;;;;;19.72;55.08;97699.70;1618353;89;21082;-71
2021/05/27 06:50:55;;;;;;;2.08;1.15;;;;;;;19.88;56.23;97696.61;1618495;89;21194;-70
2021/05/27 06:52:57;;;;;;;1.77;1.00;;;;;;;20.03;55.92;97702.94;1611984;88;21654;-70
2021/05/27 06:55:23;;;;;;;3.35;1.00;;;;;;;20.24;55.78;97702.13;1618247;89;21165;-71
2021/05/27 06:57:50;;;;;;;1.98;1.12;;;;;;;20.24;55.22;97690.27;1605497;88;21158;-73
2021/05/27 07:00:19;;;;;;;1.75;1.20;;;;;;;20.22;55.31;97687.55;1602313;89;21091;-70
2021/05/27 07:02:47;;;;;;;2.45;1.32;;;;;;;20.42;55.85;97695.39;1601915;89;21142;-70
2021/05/27 07:05:14;;;;;;;3.05;1.00;;;;;;;20.48;55.59;97694.53;1601433;89;21662;-70
2021/05/27 07:07:41;;;;;;;2.27;1.10;;;;;;;20.64;54.50;97692.72;1601756;89;21063;-72
2021/05/27 07:10:09;;;;;;;1.20;0.90;;;;;;;20.74;54.82;97693.05;1597494;89;21572;-70
2021/05/27 07:12:36;;;;;;;1.67;1.07;;;;;;;20.91;55.38;97694.16;1608743;89;21701;-68
2021/05/27 07:15:04;;;;;;;2.70;1.32;;;;;;;21.06;54.88;97692.51;1603279;89;21099;-69
2021/05/27 07:17:31;;;;;;;4.70;1.65;;;;;;;20.81;54.27;97693.33;1601512;89;21165;-69
2021/05/27 07:19:58;;;;;;;3.90;1.80;;;;;;;20.64;55.55;97682.16;1579505;91;21067;-71
2021/05/27 07:22:25;;;;;;;2.15;1.72;;;;;;;20.50;55.92;97684.09;1600633;89;21051;-70
2021/05/27 07:24:51;;;;;;;2.02;1.37;;;;;;;20.65;55.50;97679.83;1578941;91;21583;-69
2021/05/27 07:27:18;;;;;;;2.67;1.50;;;;;;;20.81;55.86;97677.48;1579267;90;21591;-69
2021/05/27 07:29:47;;;;;;;2.72;1.42;;;;;;;20.99;55.37;97677.23;1579038;90;21631;-68
2021/05/27 07:32:13;;;;;;;5.17;1.70;;;;;;;21.10;54.73;97677.34;1578962;90;21084;-68
2021/05/27 07:34:45;;;;;;;2.70;1.50;;;;;;;21.22;54.34;97675.65;1602045;89;21162;-68
2021/05/27 07:37:08;;;;;;;4.60;1.75;;;;;;;21.24;54.56;97670.16;1599708;88;21554;-71
2021/05/27 07:39:35;;;;;;;5.97;1.87;;;;;;;21.20;54.43;97671.11;1600875;89;21039;-69
2021/05/27 07:42:06;;;;;;;33.02;18.62;;;;;;;21.09;55.36;97674.41;1601298;89;21174;-68
2021/05/27 07:44:35;;;;;;;4.00;2.70;;;;;;;21.34;54.71;97670.97;1602174;89;21245;-75
2021/05/27 07:47:02;;;;;;;3.40;2.20;;;;;;;21.20;55.06;97665.83;1610959;88;21137;-69
2021/05/27 07:49:29;;;;;;;2.08;1.80;;;;;;;21.23;55.15;97664.07;1610176;89;21038;-70
2021/05/27 07:51:57;;;;;;;2.40;1.40;;;;;;;21.15;55.11;97664.85;1578939;91;21107;-70
2021/05/27 07:54:25;;;;;;;2.10;1.25;;;;;;;21.24;54.26;97657.73;1601977;89;21604;-69
2021/05/27 07:56:52;;;;;;;6.62;2.87;;;;;;;21.19;54.13;97656.28;1583927;89;21670;-72
2021/05/27 07:59:21;;;;;;;2.60;1.62;;;;;;;21.40;54.22;97662.98;1606399;89;21063;-67
2021/05/27 08:01:47;;;;;;;2.47;1.32;;;;;;;21.49;54.18;97663.50;1606236;89;21122;-70
2021/05/27 08:04:14;;;;;;;2.95;1.55;;;;;;;21.69;54.09;97658.31;1600510;88;21086;-73
2021/05/27 08:06:41;;;;;;;2.90;1.17;;;;;;;21.90;52.88;97661.03;1630295;88;21090;-70
2021/05/27 08:09:10;;;;;;;1.52;1.12;;;;;;;22.09;52.83;97654.72;1616329;88;21077;-71
2021/05/27 08:11:44;;;;;;;30.82;16.07;;;;;;;22.25;51.85;97651.97;1621231;88;21100;-72
2021/05/27 08:14:12;;;;;;;46.95;22.27;;;;;;;22.37;51.78;97650.70;1615777;88;21120;-71
2021/05/27 08:16:39;;;;;;;8.50;5.67;;;;;;;22.55;51.19;97649.30;1608442;88;21049;-71
2021/05/27 08:19:06;;;;;;;6.53;2.70;;;;;;;22.71;51.48;97648.69;1613321;88;21029;-70
2021/05/27 08:21:34;;;;;;;3.47;1.60;;;;;;;22.69;50.77;97648.91;1626228;88;21060;-70
2021/05/27 08:24:00;;;;;;;2.27;1.00;;;;;;;22.93;50.68;97640.48;1625911;88;21183;-70
2021/05/27 08:26:27;;;;;;;5.12;2.20;;;;;;;23.04;50.19;97642.84;1625891;88;21073;-70
2021/05/27 08:28:54;;;;;;;2.05;1.10;;;;;;;23.04;50.46;97641.02;1625741;88;21092;-70
2021/05/27 08:31:21;;;;;;;3.87;1.32;;;;;;;23.17;50.20;97647.94;1626222;88;21069;-69
2021/05/27 08:33:49;;;;;;;1.50;1.15;;;;;;;23.38;49.78;97642.58;1626231;87;21191;-70
2021/05/27 08:36:17;;;;;;;3.62;1.70;;;;;;;23.59;49.23;97637.51;1626149;88;21128;-70
2021/05/27 08:38:45;;;;;;;1.80;1.50;;;;;;;23.54;48.50;97639.27;1626048;88;21593;-70
2021/05/27 08:41:13;;;;;;;2.10;1.02;;;;;;;23.47;49.28;97629.28;1651708;86;21061;-70
2021/05/27 08:43:41;;;;;;;1.87;0.95;;;;;;;23.73;48.08;97637.27;1626183;88;21132;-70
2021/05/27 08:46:08;;;;;;;2.50;1.15;;;;;;;23.70;47.59;97633.73;1626241;88;21088;-72
2021/05/27 08:48:35;;;;;;;2.40;0.90;;;;;;;23.18;47.93;97628.36;1626269;88;21092;-69
2021/05/27 08:51:02;;;;;;;2.22;1.20;;;;;;;22.95;48.88;97633.14;1626086;88;21061;-68
2021/05/27 08:53:29;;;;;;;1.45;0.90;;;;;;;23.00;49.07;97636.39;1626320;88;21100;-68
2021/05/27 08:55:56;;;;;;;2.70;1.40;;;;;;;23.35;48.38;97631.09;1626332;88;21136;-69
2021/05/27 08:58:23;;;;;;;3.35;1.52;;;;;;;23.23;48.50;97626.35;1626061;87;21301;-68
2021/05/27 09:00:50;;;;;;;3.27;1.75;;;;;;;23.24;48.32;97623.45;1626182;88;21323;-69
2021/05/27 09:03:18;;;;;;;1.77;1.07;;;;;;;23.47;48.10;97622.66;1626167;88;21651;-69
2021/05/27 09:05:46;;;;;;;1.35;1.15;;;;;;;23.65;48.04;97619.88;1626324;87;21568;-69
2021/05/27 09:08:31;;;;;;;1.40;1.15;;;;;;;23.46;48.74;97620.52;1626237;88;21172;-69
2021/05/27 09:11:04;;;;;;;3.02;1.42;;;;;;;23.14;49.06;97610.80;1626301;88;21207;-69
2021/05/27 09:13:32;;;;;;;1.98;1.17;;;;;;;23.11;49.47;97613.89;1626353;88;21097;-69
2021/05/27 09:16:11;;;;;;;1.87;1.47;;;;;;;23.27;49.05;97612.39;1626405;88;21189;-69
2021/05/27 09:18:41;;;;;;;2.65;1.40;;;;;;;23.42;47.91;97611.94;1626003;88;21615;-71
2021/05/27 09:21:12;;;;;;;1.25;1.10;;;;;;;23.54;46.60;97604.26;1626131;88;21076;-69
2021/05/27 09:23:51;;;;;;;1.85;1.17;;;;;;;23.30;46.98;97605.84;1626304;88;21251;-69
2021/05/27 09:26:20;;;;;;;1.57;1.10;;;;;;;23.78;46.38;97598.38;1626205;88;21118;-69
2021/05/27 09:28:48;;;;;;;2.52;1.57;;;;;;;24.10;45.41;97607.50;1626124;88;21128;-69
2021/05/27 09:31:19;;;;;;;1.80;1.05;;;;;;;23.90;45.83;97597.83;1626142;88;21132;-69
2021/05/27 09:34:05;;;;;;;1.32;1.10;;;;;;;24.17;45.06;97596.77;1626167;88;21100;-69
2021/05/27 09:36:31;;;;;;;3.98;1.47;;;;;;;24.02;45.98;97584.52;1626427;88;21175;-68
2021/05/27 09:39:01;;;;;;;4.67;1.95;;;;;;;24.12;45.68;97588.16;1626043;88;21219;-69
2021/05/27 09:41:33;;;;;;;4.92;2.08;;;;;;;24.33;45.22;97581.92;1626010;88;21624;-68
2021/05/27 09:44:08;;;;;;;1.80;1.42;;;;;;;24.65;44.26;97586.98;1626204;88;21085;-68
2021/05/27 09:46:55;;;;;;;2.12;1.50;;;;;;;24.78;43.72;97576.58;1626250;88;21592;-69
2021/05/27 09:49:23;;;;;;;2.75;1.30;;;;;;;24.85;43.96;97577.24;1626169;88;21113;-68
2021/05/27 09:51:56;;;;;;;1.90;1.37;;;;;;;24.95;42.27;97584.83;1626066;88;21150;-70
2021/05/27 09:54:24;;;;;;;2.37;1.50;;;;;;;25.37;42.96;97581.68;1626186;88;21617;-69
2021/05/27 09:56:51;;;;;;;1.55;1.30;;;;;;;25.68;41.44;97573.62;1626080;88;21087;-72
2021/05/27 09:59:18;;;;;;;1.10;0.90;;;;;;;26.13;41.57;97566.65;1626069;87;21139;-71
2021/05/27 10:02:18;;;;;;;0.70;0.70;;;;;;;26.73;41.89;97559.76;1626124;88;21189;-71
2021/05/27 10:05:06;;;;;;;2.35;1.00;;;;;;;27.37;39.15;97552.44;1627000;85;21084;-69
2021/05/27 10:07:50;;;;;;;0.75;0.62;;;;;;;27.94;37.14;97553.72;1626361;88;21107;-70
2021/05/27 10:10:20;;;;;;;2.98;1.67;;;;;;;28.67;38.28;97558.38;1625867;88;21117;-69
2021/05/27 10:12:51;;;;;;;2.42;1.30;;;;;;;28.66;37.38;97560.78;1626775;88;21790;-70
2021/05/27 10:15:24;;;;;;;4.58;1.00;;;;;;;29.19;36.17;97554.03;1626224;88;21152;-70
2021/05/27 10:17:54;;;;;;;1.82;1.45;;;;;;;29.60;35.55;97548.86;1626165;88;21112;-70
2021/05/27 10:20:26;;;;;;;3.37;1.40;;;;;;;29.67;36.22;97546.68;1625988;87;21064;-72
2021/05/27 10:22:56;;;;;;;1.27;0.90;;;;;;;29.40;34.51;97542.25;1626218;88;21207;-70
2021/05/27 10:25:25;;;;;;;2.60;1.85;;;;;;;28.90;34.79;97550.38;1626352;88;21113;-69
2021/05/27 10:27:57;;;;;;;5.55;2.22;;;;;;;28.75;35.44;97537.84;1626101;88;21124;-70
2021/05/27 10:30:25;;;;;;;2.45;1.50;;;;;;;28.34;35.93;97544.20;1626320;88;21117;-69
2021/05/27 10:33:02;;;;;;;1.60;1.10;;;;;;;28.14;36.72;97539.11;1626370;88;21179;-69
2021/05/27 10:35:55;;;;;;;3.22;1.40;;;;;;;28.80;35.95;97542.34;1626263;88;21153;-69
2021/05/27 10:38:45;;;;;;;1.42;0.88;;;;;;;29.03;35.03;97538.56;1626394;87;21276;-69
2021/05/27 10:41:29;;;;;;;2.27;1.35;;;;;;;29.07;34.99;97533.48;1626270;88;21092;-68
2021/05/27 10:44:07;;;;;;;5.22;1.40;;;;;;;28.85;35.51;97531.13;1626357;88;21129;-67
2021/05/27 10:46:48;;;;;;;2.30;1.70;;;;;;;27.64;36.45;97528.30;1626312;88;21105;-70
2021/05/27 10:49:45;;;;;;;2.25;1.40;;;;;;;27.14;37.65;97515.53;1626440;88;21692;-69
2021/05/27 10:52:33;;;;;;;2.22;1.20;;;;;;;27.15;38.29;97527.28;1626325;88;21592;-68
2021/05/27 10:55:04;;;;;;;4.60;2.50;;;;;;;25.99;39.86;97530.34;1626364;88;21133;-67
2021/05/27 10:57:46;;;;;;;2.25;1.57;;;;;;;26.17;40.16;97529.16;1626427;85;21558;-68
2021/05/27 11:00:34;;;;;;;5.55;1.50;;;;;;;26.44;39.80;97528.62;1626126;88;21073;-68
2021/05/27 11:03:48;;;;;;;3.20;1.82;;;;;;;26.36;40.52;97518.45;1626242;87;21596;-68
2021/05/27 11:06:31;;;;;;;2.27;1.35;;;;;;;26.07;40.38;97520.55;1626282;88;21141;-68
2021/05/27 11:09:25;;;;;;;3.40;1.42;;;;;;;27.03;39.53;97514.69;1626335;88;21120;-69
2021/05/27 11:12:03;;;;;;;1.65;1.35;;;;;;;27.65;38.53;97513.38;1626226;88;21640;-66
2021/05/27 11:14:35;;;;;;;2.52;1.12;;;;;;;28.59;37.38;97513.50;1626188;86;21105;-68
2021/05/27 11:20:11;;;;;;;3.05;1.45;;;;;;;28.29;36.41;97500.41;1626132;88;21608;-69
2021/05/27 11:25:15;;;;;;;1.80;1.20;;;;;;;27.63;36.83;97500.01;1626554;88;21292;-68
2021/05/27 11:27:57;;;;;;;1.20;1.10;;;;;;;27.98;36.32;97496.61;1626420;88;21057;-71
2021/05/27 11:30:41;;;;;;;2.65;1.12;;;;;;;28.12;36.79;97503.09;1627548;85;21204;-68
2021/05/27 11:33:32;;;;;;;3.42;1.40;;;;;;;28.11;36.94;97500.14;1626352;88;21126;-67
2021/05/27 11:36:02;;;;;;;;;;;;;;;27.93;37.00;97500.10;1626162;88;21758;-67
2021/05/27 11:38:34;;;;;;;1.00;0.72;;;;;;;27.76;37.74;97503.00;1626803;87;20192;-70
2021/05/27 11:41:11;;;;;;;1.25;0.93;;;;;;;27.52;37.50;97493.85;1627253;88;21136;-68
2021/05/27 11:43:48;;;;;;;2.25;1.30;;;;;;;27.58;37.69;97494.16;1626748;88;21588;-68
2021/05/27 11:46:22;;;;;;;1.32;0.68;;;;;;;27.63;37.44;97491.48;1626322;88;21065;-68
2021/05/27 11:51:27;;;;;;;2.12;1.15;;;;;;;27.77;36.99;97487.27;1626242;87;21205;-68
2021/05/27 11:53:58;;;;;;;2.52;2.25;;;;;;;27.50;37.72;97482.66;1626274;88;21707;-68
2021/05/27 11:56:44;;;;;;;2.12;1.52;;;;;;;27.12;38.78;97476.36;1626359;87;21132;-68
2021/05/27 11:59:21;;;;;;;3.58;1.25;;;;;;;27.62;37.74;97477.89;1630802;87;21147;-66
2021/05/27 12:02:00;;;;;;;3.92;1.27;;;;;;;27.70;38.05;97472.58;1633298;88;21128;-68
2021/05/27 12:04:29;;;;;;;3.02;1.10;;;;;;;27.39;39.79;97465.77;1633404;88;21711;-68
2021/05/27 12:07:06;;;;;;;3.02;1.37;;;;;;;27.64;39.10;97461.61;1633636;88;21195;-68
2021/05/27 12:09:47;;;;;;;2.83;1.45;;;;;;;28.51;36.69;97457.42;1633364;87;21155;-68